Time;durP1;ratioP1;P1;durP2;ratioP2;P2;SDS_P1;SDS_P2;PMS_P1;PMS_P2;Temp;Humidity;BMP_temperature;BMP_pressure;BME280_temperature;BME280_humidity;BME280_pressure;Samples;Min_cycle;Max_cycle;Signal;HPM_P1;HPM_P2
2024/04/21 00:01:10;;;;;;;0.30;0.30;;;5.10;99.90;;;;;;4442803;32;20106;-61
2024/04/21 00:03:36;;;;;;;0.75;0.75;;;5.00;99.90;;;;;;4441233;32;20057;-60
2024/04/21 00:06:01;;;;;;;0.40;0.40;;;5.10;99.90;;;;;;4444491;32;20053;-60
2024/04/21 00:08:27;;;;;;;0.50;0.50;;;5.10;99.90;;;;;;4439493;32;20057;-60
2024/04/21 00:10:52;;;;;;;0.52;0.47;;;5.00;99.90;;;;;;4440185;32;20069;-61
2024/04/21 00:13:19;;;;;;;0.30;0.30;;;5.10;99.90;;;;;;4439041;32;20065;-60
2024/04/21 00:15:45;;;;;;;0.45;0.45;;;5.10;99.90;;;;;;4440914;32;20528;-61
2024/04/21 00:18:10;;;;;;;1.75;1.30;;;5.10;99.90;;;;;;4430455;32;20177;-61
2024/04/21 00:20:36;;;;;;;0.45;0.45;;;5.10;99.90;;;;;;4441272;32;20053;-61
2024/04/21 00:23:01;;;;;;;1.12;1.05;;;5.10;99.90;;;;;;4442460;32;20077;-60
2024/04/21 00:25:28;;;;;;;2.60;1.42;;;5.10;99.90;;;;;;4439929;32;20414;-61
2024/04/21 00:27:54;;;;;;;1.00;0.60;;;5.10;99.90;;;;;;4441796;32;21163;-59
2024/04/21 00:30:19;;;;;;;4.20;1.30;;;5.10;99.90;;;;;;4441452;32;20155;-61
2024/04/21 00:32:45;;;;;;;0.60;0.52;;;5.00;99.90;;;;;;4442879;32;20069;-60
2024/04/21 00:35:10;;;;;;;1.30;1.20;;;5.00;99.90;;;;;;4441734;32;20437;-60
2024/04/21 00:37:36;;;;;;;0.35;0.35;;;4.90;99.90;;;;;;4443312;32;20480;-60
2024/04/21 00:40:01;;;;;;;0.60;0.55;;;4.90;99.90;;;;;;4429530;32;20121;-60
2024/04/21 00:42:27;;;;;;;0.40;0.40;;;4.90;99.90;;;;;;4440672;32;20112;-60
2024/04/21 00:44:53;;;;;;;0.52;0.52;;;5.00;99.90;;;;;;4438431;32;20135;-59
2024/04/21 00:47:18;;;;;;;0.30;0.30;;;4.90;99.90;;;;;;4443302;32;20560;-61
2024/04/21 00:49:44;;;;;;;0.52;0.52;;;4.90;99.90;;;;;;4441796;32;20569;-60
2024/04/21 00:52:10;;;;;;;0.40;0.40;;;4.80;99.90;;;;;;4429153;32;20124;-61
2024/04/21 00:54:36;;;;;;;0.40;0.40;;;4.70;99.90;;;;;;4440111;32;20065;-60
2024/04/21 00:57:02;;;;;;;0.40;0.40;;;4.70;99.90;;;;;;4441417;32;20077;-58
2024/04/21 00:59:29;;;;;;;0.75;0.75;;;4.70;99.90;;;;;;4430562;32;20061;-61
2024/04/21 01:01:55;;;;;;;0.65;0.65;;;4.60;99.90;;;;;;4442852;32;20438;-60
2024/04/21 01:04:22;;;;;;;0.85;0.65;;;4.60;99.90;;;;;;4428546;32;20120;-59
2024/04/21 01:06:48;;;;;;;0.43;0.43;;;4.60;99.90;;;;;;4437824;32;20419;-60
2024/04/21 01:09:13;;;;;;;0.90;0.90;;;4.60;99.90;;;;;;4441420;32;20078;-60
2024/04/21 01:11:48;;;;;;;0.45;0.45;;;4.60;99.90;;;;;;4440606;32;20088;-60
2024/04/21 01:14:13;;;;;;;0.50;0.50;;;4.60;99.90;;;;;;4439527;32;20445;-61
2024/04/21 01:16:39;;;;;;;0.52;0.52;;;4.60;99.90;;;;;;4441515;32;20108;-59
2024/04/21 01:19:04;;;;;;;0.43;0.43;;;4.50;99.90;;;;;;4439842;32;20070;-60
2024/04/21 01:21:30;;;;;;;0.50;0.50;;;4.30;99.90;;;;;;4441894;32;20064;-60
2024/04/21 01:23:55;;;;;;;0.88;0.60;;;4.30;99.90;;;;;;4440954;32;20082;-60
2024/04/21 01:26:21;;;;;;;2.20;1.23;;;4.20;99.90;;;;;;4442402;32;20484;-60
2024/04/21 01:28:47;;;;;;;0.60;0.60;;;4.20;99.90;;;;;;4438765;32;20070;-59
2024/04/21 01:31:15;;;;;;;1.10;0.73;;;4.20;99.90;;;;;;4434647;32;20057;-59
2024/04/21 01:33:40;;;;;;;0.68;0.68;;;4.20;99.90;;;;;;4429175;32;20479;-59
2024/04/21 01:36:06;;;;;;;0.30;0.30;;;4.20;99.90;;;;;;4441864;32;20060;-59
2024/04/21 01:38:32;;;;;;;0.40;0.40;;;4.00;99.90;;;;;;4441248;32;20085;-60
2024/04/21 01:40:57;;;;;;;1.40;0.85;;;4.00;99.90;;;;;;4441425;32;20064;-60
2024/04/21 01:43:23;;;;;;;0.57;0.57;;;3.90;99.90;;;;;;4440355;32;20126;-60
2024/04/21 01:45:51;;;;;;;0.45;0.45;;;3.90;99.90;;;;;;4441322;32;20074;-59
2024/04/21 01:48:16;;;;;;;0.40;0.40;;;3.90;99.90;;;;;;4441650;32;20120;-60
2024/04/21 01:50:42;;;;;;;1.17;0.60;;;4.00;99.90;;;;;;4430985;32;20123;-59
2024/04/21 01:53:07;;;;;;;0.45;0.45;;;3.90;99.90;;;;;;4442056;32;20056;-60
2024/04/21 01:55:33;;;;;;;0.50;0.50;;;3.80;99.90;;;;;;4440363;32;20544;-61
2024/04/21 01:57:58;;;;;;;0.40;0.40;;;3.80;99.90;;;;;;4440486;32;20081;-61
2024/04/21 02:00:24;;;;;;;0.57;0.57;;;3.80;99.90;;;;;;4440647;32;20113;-60
2024/04/21 02:02:49;;;;;;;0.40;0.40;;;3.80;99.90;;;;;;4441470;32;20082;-60
2024/04/21 02:05:15;;;;;;;0.30;0.30;;;3.80;99.90;;;;;;4439829;32;20249;-60
2024/04/21 02:07:41;;;;;;;0.60;0.60;;;3.80;99.90;;;;;;4441845;32;20070;-59
2024/04/21 02:10:06;;;;;;;0.30;0.30;;;3.80;99.90;;;;;;4439331;32;20072;-60
2024/04/21 02:12:32;;;;;;;0.50;0.50;;;3.80;99.90;;;;;;4441981;32;20126;-62
2024/04/21 02:14:58;;;;;;;0.40;0.40;;;3.80;99.90;;;;;;4438193;32;20115;-61
2024/04/21 02:17:23;;;;;;;0.40;0.40;;;3.80;99.90;;;;;;4428759;32;20057;-61
2024/04/21 02:19:49;;;;;;;0.30;0.30;;;3.80;99.90;;;;;;4438075;32;20089;-60
2024/04/21 02:22:14;;;;;;;0.47;0.47;;;3.80;99.90;;;;;;4440739;32;20339;-60
2024/04/21 02:24:42;;;;;;;0.50;0.50;;;3.70;99.90;;;;;;4438754;32;20072;-62
2024/04/21 02:27:08;;;;;;;0.60;0.60;;;3.70;99.90;;;;;;4430229;32;20477;-63
2024/04/21 02:29:34;;;;;;;0.40;0.40;;;3.60;99.90;;;;;;4438494;32;20998;-61
2024/04/21 02:31:59;;;;;;;0.40;0.40;;;3.60;99.90;;;;;;4440776;32;20068;-62
2024/04/21 02:34:25;;;;;;;0.45;0.45;;;3.60;99.90;;;;;;4441050;32;20483;-61
2024/04/21 02:36:51;;;;;;;0.60;0.60;;;3.60;99.90;;;;;;4439544;32;20552;-61
2024/04/21 02:39:16;;;;;;;0.88;0.60;;;3.60;99.90;;;;;;4438510;32;20120;-61
2024/04/21 02:41:42;;;;;;;0.30;0.30;;;3.50;99.90;;;;;;4438989;32;20082;-62
2024/04/21 02:44:08;;;;;;;0.70;0.70;;;3.50;99.90;;;;;;4438984;32;20065;-61
2024/04/21 02:46:33;;;;;;;0.40;0.40;;;3.50;99.90;;;;;;4440326;32;20074;-61
2024/04/21 02:48:59;;;;;;;0.37;0.37;;;3.50;99.90;;;;;;4439040;32;20064;-61
2024/04/21 02:51:25;;;;;;;0.40;0.40;;;3.50;99.90;;;;;;4442160;32;20528;-59
2024/04/21 02:53:50;;;;;;;0.30;0.30;;;3.50;99.90;;;;;;4429948;32;20069;-61
2024/04/21 02:56:16;;;;;;;0.40;0.40;;;3.50;99.90;;;;;;4439256;32;20418;-61
2024/04/21 02:58:42;;;;;;;0.50;0.50;;;3.50;99.90;;;;;;4440290;32;20077;-62
2024/04/21 03:01:07;;;;;;;0.40;0.40;;;3.50;99.90;;;;;;4439616;32;20134;-61
2024/04/21 03:03:33;;;;;;;1.27;0.85;;;3.40;99.90;;;;;;4438488;32;20057;-61
2024/04/21 03:05:58;;;;;;;0.30;0.30;;;3.50;99.90;;;;;;4440194;32;20528;-61
2024/04/21 03:08:24;;;;;;;0.32;0.32;;;3.40;99.90;;;;;;4428184;32;20509;-62
2024/04/21 03:10:50;;;;;;;0.30;0.30;;;3.50;99.90;;;;;;4414569;32;20085;-62
2024/04/21 03:13:16;;;;;;;0.60;0.60;;;3.40;99.90;;;;;;4439879;32;20112;-61
2024/04/21 03:15:41;;;;;;;0.45;0.45;;;3.40;99.90;;;;;;4439705;32;20517;-60
2024/04/21 03:18:07;;;;;;;0.68;0.68;;;3.40;99.90;;;;;;4439944;32;20073;-61
2024/04/21 03:20:33;;;;;;;0.40;0.40;;;3.30;99.90;;;;;;4440931;32;20069;-62
2024/04/21 03:22:58;;;;;;;0.43;0.43;;;3.30;99.90;;;;;;4440408;32;20111;-60
2024/04/21 03:25:24;;;;;;;0.35;0.35;;;3.30;99.90;;;;;;4440420;32;20074;-60
2024/04/21 03:27:49;;;;;;;0.30;0.30;;;3.40;99.90;;;;;;4441275;32;20085;-57
2024/04/21 03:30:15;;;;;;;0.57;0.57;;;3.30;99.90;;;;;;4438366;32;20123;-60
2024/04/21 03:32:41;;;;;;;0.30;0.30;;;3.30;99.90;;;;;;4439676;32;20529;-60
2024/04/21 03:35:08;;;;;;;0.50;0.50;;;3.20;99.90;;;;;;4439032;32;20061;-60
2024/04/21 03:37:34;;;;;;;0.70;0.70;;;3.10;99.90;;;;;;4429199;32;20057;-60
2024/04/21 03:40:00;;;;;;;0.90;0.82;;;3.20;99.90;;;;;;4427575;32;20077;-60
2024/04/21 03:42:26;;;;;;;0.55;0.55;;;3.20;99.90;;;;;;4439053;32;20186;-60
2024/04/21 03:44:51;;;;;;;0.43;0.43;;;3.20;99.90;;;;;;4432365;32;20107;-60
2024/04/21 03:47:18;;;;;;;0.62;0.62;;;3.20;99.90;;;;;;4439066;32;20070;-61
2024/04/21 03:49:44;;;;;;;0.65;0.65;;;3.30;99.90;;;;;;4442104;32;20064;-60
2024/04/21 03:52:09;;;;;;;0.40;0.40;;;3.20;99.90;;;;;;4443378;32;20085;-60
2024/04/21 03:54:35;;;;;;;0.30;0.30;;;3.10;99.90;;;;;;4439031;32;20065;-60
2024/04/21 03:57:04;;;;;;;0.30;0.30;;;3.10;99.90;;;;;;4436692;32;20512;-59
2024/04/21 03:59:30;;;;;;;0.30;0.30;;;3.10;99.90;;;;;;4429269;32;20572;-60
2024/04/21 04:01:56;;;;;;;0.40;0.40;;;3.10;99.90;;;;;;4429053;32;20069;-60
2024/04/21 04:04:21;;;;;;;0.90;0.77;;;3.20;99.90;;;;;;4434206;32;20128;-60
2024/04/21 04:06:47;;;;;;;0.68;0.68;;;3.20;99.90;;;;;;4429845;32;20077;-61
2024/04/21 04:09:12;;;;;;;0.40;0.40;;;3.10;99.90;;;;;;4430300;32;21229;-60
2024/04/21 04:11:38;;;;;;;0.50;0.50;;;3.00;99.90;;;;;;4435834;32;20400;-60
2024/04/21 04:14:04;;;;;;;2.05;0.80;;;3.00;99.90;;;;;;4431685;32;21142;-61
2024/04/21 04:16:29;;;;;;;0.40;0.40;;;3.00;99.90;;;;;;4436683;32;20069;-59
2024/04/21 04:18:55;;;;;;;4.72;1.17;;;3.00;99.90;;;;;;4431647;32;20438;-61
2024/04/21 04:21:20;;;;;;;0.40;0.40;;;3.00;99.90;;;;;;4432279;32;20054;-59
2024/04/21 04:23:46;;;;;;;0.40;0.40;;;3.00;99.90;;;;;;4431507;32;20073;-61
2024/04/21 04:26:11;;;;;;;0.40;0.40;;;2.90;99.90;;;;;;4429376;32;20501;-59
2024/04/21 04:28:38;;;;;;;0.52;0.52;;;3.00;99.90;;;;;;4430979;32;20061;-60
2024/04/21 04:31:03;;;;;;;1.45;1.20;;;3.00;99.90;;;;;;4433496;32;20520;-60
2024/04/21 04:33:29;;;;;;;0.70;0.70;;;3.00;99.90;;;;;;4430384;32;20091;-61
2024/04/21 04:35:55;;;;;;;0.30;0.30;;;2.90;99.90;;;;;;4433261;32;20542;-61
2024/04/21 04:38:20;;;;;;;1.75;1.15;;;2.90;99.90;;;;;;4428419;32;20073;-61
2024/04/21 04:40:46;;;;;;;0.32;0.32;;;2.90;99.90;;;;;;4433075;32;20494;-62
2024/04/21 04:43:11;;;;;;;0.98;0.95;;;3.00;99.90;;;;;;4432908;32;20090;-60
2024/04/21 04:45:37;;;;;;;0.50;0.50;;;2.90;99.90;;;;;;4432491;32;20422;-61
2024/04/21 04:48:03;;;;;;;0.50;0.50;;;3.00;99.90;;;;;;4426605;32;20085;-61
2024/04/21 04:50:28;;;;;;;1.23;1.12;;;2.90;99.90;;;;;;4425164;32;20097;-61
2024/04/21 04:52:56;;;;;;;0.50;0.50;;;3.00;99.90;;;;;;4428821;32;20065;-61
2024/04/21 04:55:22;;;;;;;0.40;0.40;;;3.00;99.90;;;;;;4439014;32;20068;-61
2024/04/21 04:57:48;;;;;;;0.37;0.37;;;2.90;99.90;;;;;;4442356;32;20145;-61
2024/04/21 05:00:14;;;;;;;0.50;0.50;;;3.00;99.90;;;;;;4442345;32;20508;-59
2024/04/21 05:02:39;;;;;;;0.32;0.32;;;2.90;99.90;;;;;;4429753;32;20057;-61
2024/04/21 05:05:05;;;;;;;0.40;0.40;;;3.00;99.90;;;;;;4440643;32;20057;-60
2024/04/21 05:07:31;;;;;;;0.50;0.50;;;3.10;99.90;;;;;;4443059;32;20090;-61
2024/04/21 05:09:56;;;;;;;0.57;0.57;;;3.10;99.90;;;;;;4430568;32;20119;-59
2024/04/21 05:12:22;;;;;;;0.40;0.40;;;3.10;99.90;;;;;;4440843;32;20061;-61
2024/04/21 05:14:47;;;;;;;0.40;0.40;;;3.10;99.90;;;;;;4439464;32;20078;-59
2024/04/21 05:17:13;;;;;;;0.40;0.40;;;3.10;99.90;;;;;;4443011;32;20516;-61
2024/04/21 05:19:39;;;;;;;0.55;0.55;;;3.10;99.90;;;;;;4438910;32;20532;-61
2024/04/21 05:22:04;;;;;;;2.17;0.70;;;3.10;99.90;;;;;;4440661;32;20592;-60
2024/04/21 05:24:30;;;;;;;1.27;1.08;;;3.10;99.90;;;;;;4441239;32;20076;-59
2024/04/21 05:26:56;;;;;;;0.30;0.30;;;3.20;99.90;;;;;;4440697;32;20119;-60
2024/04/21 05:29:22;;;;;;;0.40;0.40;;;3.20;99.90;;;;;;4441670;32;20073;-61
2024/04/21 05:31:47;;;;;;;0.40;0.40;;;3.30;99.90;;;;;;4442805;32;20417;-62
2024/04/21 05:34:13;;;;;;;0.50;0.50;;;3.30;99.90;;;;;;4440433;32;20069;-61
2024/04/21 05:36:39;;;;;;;0.40;0.40;;;3.30;99.90;;;;;;4444176;32;20431;-60
2024/04/21 05:39:04;;;;;;;0.70;0.70;;;3.30;99.90;;;;;;4441255;32;20537;-60
2024/04/21 05:41:30;;;;;;;4.28;1.48;;;3.30;99.90;;;;;;4441461;32;20081;-61
2024/04/21 05:43:55;;;;;;;0.30;0.30;;;3.40;99.90;;;;;;4440830;32;20076;-60
2024/04/21 05:46:21;;;;;;;0.32;0.32;;;3.50;99.90;;;;;;4432125;32;20066;-60
2024/04/21 05:48:46;;;;;;;1.02;0.95;;;3.60;99.90;;;;;;4439241;32;20077;-60
2024/04/21 05:51:12;;;;;;;0.40;0.40;;;3.60;99.90;;;;;;4441823;32;20077;-60
2024/04/21 05:53:37;;;;;;;0.75;0.75;;;3.70;99.90;;;;;;4440443;32;20085;-62
2024/04/21 05:56:03;;;;;;;0.45;0.45;;;3.60;99.90;;;;;;4431567;32;20520;-61
2024/04/21 05:58:29;;;;;;;0.80;0.62;;;3.60;99.90;;;;;;4432938;32;20118;-61
2024/04/21 06:00:55;;;;;;;0.40;0.40;;;3.70;99.90;;;;;;4430399;32;20074;-62
2024/04/21 06:03:20;;;;;;;0.40;0.40;;;3.70;99.90;;;;;;4430894;32;20428;-60
2024/04/21 06:05:46;;;;;;;0.45;0.45;;;3.80;99.90;;;;;;4428997;32;20502;-60
2024/04/21 06:08:12;;;;;;;4.80;0.90;;;3.90;99.90;;;;;;4429427;32;20070;-60
2024/04/21 06:10:37;;;;;;;1.50;0.75;;;3.90;99.90;;;;;;4428190;32;20061;-61
2024/04/21 06:13:03;;;;;;;0.40;0.40;;;3.90;99.90;;;;;;4431923;32;20061;-60
2024/04/21 06:15:28;;;;;;;0.40;0.40;;;4.00;99.90;;;;;;4429105;32;20062;-60
2024/04/21 06:17:54;;;;;;;0.70;0.70;;;4.10;99.90;;;;;;4436858;32;20057;-60
2024/04/21 06:20:20;;;;;;;0.50;0.50;;;4.20;99.90;;;;;;4427890;32;20065;-60
2024/04/21 06:22:45;;;;;;;0.40;0.40;;;4.30;99.90;;;;;;4430447;32;20057;-60
2024/04/21 06:25:11;;;;;;;0.40;0.40;;;4.30;99.90;;;;;;4431503;32;20129;-59
2024/04/21 06:27:37;;;;;;;0.93;0.93;;;4.40;99.90;;;;;;4431791;32;20141;-59
2024/04/21 06:30:03;;;;;;;9.10;1.27;;;4.50;99.90;;;;;;4430263;32;20217;-60
2024/04/21 06:32:29;;;;;;;0.88;0.77;;;4.50;99.90;;;;;;4429989;32;20056;-61
2024/04/21 06:34:54;;;;;;;0.45;0.45;;;4.70;99.90;;;;;;4426946;32;20097;-59
2024/04/21 06:37:20;;;;;;;0.40;0.40;;;4.80;99.90;;;;;;4430277;32;20065;-60
2024/04/21 06:39:46;;;;;;;0.40;0.40;;;4.90;99.90;;;;;;4432244;32;20536;-60
2024/04/21 06:42:11;;;;;;;0.40;0.40;;;5.00;99.90;;;;;;4428018;32;20127;-60
2024/04/21 06:44:38;;;;;;;0.37;0.37;;;5.10;99.90;;;;;;4431393;32;20053;-61
2024/04/21 06:47:05;;;;;;;0.52;0.52;;;5.20;99.90;;;;;;4415554;32;20588;-61
2024/04/21 06:49:36;;;;;;;0.65;0.60;;;5.20;99.90;;;;;;4428478;32;20111;-61
2024/04/21 06:52:03;;;;;;;0.43;0.43;;;5.20;99.90;;;;;;4428854;32;20065;-58
2024/04/21 06:54:28;;;;;;;0.82;0.82;;;5.20;99.90;;;;;;4437074;32;20069;-61
2024/04/21 06:56:54;;;;;;;0.40;0.40;;;5.30;99.90;;;;;;4441632;32;20557;-60
2024/04/21 06:59:20;;;;;;;6.18;2.37;;;5.40;99.90;;;;;;4432413;32;20069;-61
2024/04/21 07:01:46;;;;;;;0.40;0.40;;;5.50;99.90;;;;;;4440139;32;20057;-60
2024/04/21 07:04:12;;;;;;;0.37;0.37;;;5.50;99.90;;;;;;4439376;32;20505;-61
2024/04/21 07:06:37;;;;;;;0.40;0.40;;;5.50;99.90;;;;;;4428582;32;20058;-59
2024/04/21 07:09:03;;;;;;;0.60;0.60;;;5.50;99.90;;;;;;4439373;32;20477;-61
2024/04/21 07:11:29;;;;;;;0.30;0.30;;;5.60;99.90;;;;;;4425804;32;20088;-59
2024/04/21 07:13:54;;;;;;;0.35;0.35;;;5.60;99.90;;;;;;4438388;32;20077;-61
2024/04/21 07:16:20;;;;;;;1.08;0.85;;;5.70;99.90;;;;;;4437338;32;20077;-62
2024/04/21 07:18:45;;;;;;;0.40;0.40;;;5.80;99.90;;;;;;4438910;32;20077;-60
2024/04/21 07:21:11;;;;;;;0.40;0.40;;;5.90;99.90;;;;;;4441326;32;20096;-62
2024/04/21 07:23:37;;;;;;;0.50;0.50;;;6.00;99.90;;;;;;4442675;32;20080;-62
2024/04/21 07:26:03;;;;;;;0.30;0.30;;;6.20;99.90;;;;;;4443094;32;20124;-61
2024/04/21 07:28:29;;;;;;;0.20;0.20;;;6.20;99.90;;;;;;4441691;32;20513;-62
2024/04/21 07:30:55;;;;;;;0.30;0.30;;;6.30;99.90;;;;;;4432065;32;20089;-61
2024/04/21 07:33:20;;;;;;;0.40;0.40;;;6.40;99.90;;;;;;4442322;32;20115;-61
2024/04/21 07:35:46;;;;;;;0.50;0.50;;;6.40;99.90;;;;;;4441683;32;20520;-62
2024/04/21 07:38:11;;;;;;;0.50;0.50;;;6.50;99.90;;;;;;4430312;32;20124;-60
2024/04/21 07:40:38;;;;;;;1.85;0.40;;;6.50;99.90;;;;;;4440381;32;20068;-60
2024/04/21 07:43:03;;;;;;;0.40;0.40;;;6.60;99.90;;;;;;4433506;32;20061;-62
2024/04/21 07:45:29;;;;;;;0.57;0.57;;;6.70;99.90;;;;;;4441970;32;20069;-62
2024/04/21 07:47:54;;;;;;;0.30;0.30;;;6.80;99.90;;;;;;4442673;32;20072;-60
2024/04/21 07:50:21;;;;;;;0.45;0.40;;;6.80;99.90;;;;;;4431725;32;20560;-62
2024/04/21 07:52:46;;;;;;;0.40;0.40;;;6.90;99.90;;;;;;4441467;32;20074;-62
2024/04/21 07:55:12;;;;;;;0.22;0.22;;;6.90;99.90;;;;;;4440023;32;20073;-60
2024/04/21 07:57:38;;;;;;;0.30;0.30;;;7.00;99.90;;;;;;4442267;32;20065;-59
2024/04/21 08:00:05;;;;;;;4.37;0.70;;;7.00;99.90;;;;;;4439186;32;20112;-62
2024/04/21 08:02:30;;;;;;;0.40;0.40;;;7.20;99.90;;;;;;4442851;32;20533;-62
2024/04/21 08:04:57;;;;;;;0.35;0.35;;;7.30;99.90;;;;;;4432141;32;20123;-62
2024/04/21 08:07:23;;;;;;;2.80;0.62;;;7.40;99.90;;;;;;4432603;32;20178;-62
2024/04/21 08:09:48;;;;;;;0.30;0.30;;;7.40;99.90;;;;;;4441323;32;20056;-63
2024/04/21 08:12:14;;;;;;;0.50;0.50;;;7.40;99.90;;;;;;4442286;32;20090;-62
2024/04/21 08:14:39;;;;;;;4.12;1.77;;;7.40;99.80;;;;;;4440478;32;20517;-62
2024/04/21 08:17:05;;;;;;;0.60;0.60;;;7.40;99.70;;;;;;4442191;32;20073;-61
2024/04/21 08:19:31;;;;;;;0.40;0.40;;;7.50;99.80;;;;;;4438085;32;20089;-60
2024/04/21 08:21:56;;;;;;;0.37;0.37;;;7.60;99.90;;;;;;4440994;32;20057;-62
2024/04/21 08:24:22;;;;;;;0.40;0.40;;;7.80;99.30;;;;;;4441777;32;20058;-61
2024/04/21 08:26:49;;;;;;;0.20;0.20;;;7.80;98.90;;;;;;4442587;32;20064;-62
2024/04/21 08:29:15;;;;;;;0.40;0.40;;;7.80;98.80;;;;;;4441336;32;20072;-62
2024/04/21 08:31:40;;;;;;;0.55;0.55;;;7.80;98.50;;;;;;4441487;32;20069;-60
2024/04/21 08:34:06;;;;;;;0.52;0.52;;;7.90;98.20;;;;;;4442428;32;20073;-61
2024/04/21 08:36:31;;;;;;;0.65;0.52;;;7.70;97.30;;;;;;4442112;32;20537;-61
2024/04/21 08:38:57;;;;;;;0.40;0.40;;;7.70;98.90;;;;;;4439476;32;20061;-62
2024/04/21 08:41:26;;;;;;;0.50;0.50;;;7.80;98.70;;;;;;4440995;32;20066;-62
2024/04/21 08:43:55;;;;;;;0.50;0.50;;;8.00;98.30;;;;;;4432169;32;20077;-61
2024/04/21 08:46:21;;;;;;;0.40;0.40;;;8.10;99.90;;;;;;4443401;32;20058;-62
2024/04/21 08:48:48;;;;;;;0.30;0.30;;;8.40;99.60;;;;;;4430207;32;20529;-62
2024/04/21 08:51:15;;;;;;;0.60;0.60;;;8.50;98.80;;;;;;4433543;32;20069;-62
2024/04/21 08:53:41;;;;;;;0.50;0.50;;;8.60;97.80;;;;;;4440387;32;20073;-61
2024/04/21 08:56:17;;;;;;;1.87;1.15;;;8.50;98.00;;;;;;4431271;32;20065;-62
2024/04/21 08:58:48;;;;;;;1.17;0.98;;;8.80;98.10;;;;;;4439720;32;20093;-62
2024/04/21 09:01:15;;;;;;;0.40;0.40;;;8.90;97.70;;;;;;4441989;32;20065;-62
2024/04/21 09:03:42;;;;;;;0.60;0.60;;;8.90;98.40;;;;;;4442378;32;20062;-62
2024/04/21 09:06:09;;;;;;;0.30;0.30;;;8.90;98.40;;;;;;4442780;32;20406;-62
2024/04/21 09:08:34;;;;;;;0.30;0.30;;;9.00;98.30;;;;;;4433687;32;20114;-61
2024/04/21 09:11:00;;;;;;;1.58;0.65;;;9.10;96.90;;;;;;4440673;32;20056;-62
2024/04/21 09:13:25;;;;;;;2.40;0.90;;;9.00;96.10;;;;;;4441599;32;20061;-61
2024/04/21 09:15:51;;;;;;;0.35;0.35;;;9.00;95.80;;;;;;4441354;32;20086;-62
2024/04/21 09:18:17;;;;;;;0.32;0.32;;;9.20;96.60;;;;;;4440183;32;20073;-61
2024/04/21 09:20:45;;;;;;;0.40;0.40;;;9.30;95.40;;;;;;4440788;32;20579;-60
2024/04/21 09:23:11;;;;;;;1.27;0.60;;;9.50;96.40;;;;;;4442063;32;20085;-62
2024/04/21 09:25:36;;;;;;;0.40;0.40;;;9.50;96.20;;;;;;4440275;32;20086;-62
2024/04/21 09:28:02;;;;;;;0.20;0.20;;;9.50;95.70;;;;;;4440420;32;20077;-61
2024/04/21 09:30:28;;;;;;;0.40;0.40;;;9.20;95.80;;;;;;4440024;32;20061;-61
2024/04/21 09:32:54;;;;;;;0.75;0.70;;;9.10;96.10;;;;;;4441505;32;20144;-61
2024/04/21 09:35:20;;;;;;;0.45;0.45;;;9.10;96.20;;;;;;4440363;32;20061;-62
2024/04/21 09:37:46;;;;;;;0.47;0.47;;;9.40;95.70;;;;;;4441727;32;20537;-62
2024/04/21 09:40:14;;;;;;;5.57;0.57;;;9.90;96.00;;;;;;4441606;32;20065;-61
2024/04/21 09:42:41;;;;;;;0.30;0.30;;;10.20;94.60;;;;;;4430725;32;20069;-60
2024/04/21 09:45:08;;;;;;;0.37;0.37;;;10.30;94.30;;;;;;4428970;32;20058;-59
2024/04/21 09:47:34;;;;;;;0.35;0.35;;;10.20;94.00;;;;;;4418436;32;20165;-60
2024/04/21 09:50:02;;;;;;;0.52;0.52;;;10.40;94.80;;;;;;4432934;32;20069;-60
2024/04/21 09:52:28;;;;;;;0.50;0.50;;;10.60;94.30;;;;;;4428490;32;20076;-60
2024/04/21 09:54:54;;;;;;;0.40;0.40;;;10.50;93.60;;;;;;4430182;32;20467;-61
2024/04/21 09:57:19;;;;;;;0.45;0.45;;;10.70;93.80;;;;;;4441889;32;20123;-60
2024/04/21 09:59:46;;;;;;;0.30;0.30;;;10.70;95.00;;;;;;4430643;32;20069;-60
2024/04/21 10:02:22;;;;;;;0.45;0.45;;;10.60;95.40;;;;;;4428310;32;20579;-60
2024/04/21 10:04:55;;;;;;;0.40;0.40;;;10.30;95.70;;;;;;4439753;32;20058;-60
2024/04/21 10:07:23;;;;;;;0.32;0.32;;;10.10;96.10;;;;;;4439892;32;20120;-60
2024/04/21 10:09:51;;;;;;;0.22;0.22;;;9.90;94.80;;;;;;4413939;32;20073;-61
2024/04/21 10:12:20;;;;;;;0.57;0.50;;;9.80;95.70;;;;;;4440851;32;20057;-60
2024/04/21 10:14:48;;;;;;;0.20;0.20;;;9.70;95.50;;;;;;4441506;32;20061;-61
2024/04/21 10:17:14;;;;;;;0.52;0.52;;;9.80;95.10;;;;;;4440233;32;20061;-64
2024/04/21 10:19:39;;;;;;;0.35;0.35;;;10.10;96.50;;;;;;4440101;32;20070;-60
2024/04/21 10:22:05;;;;;;;0.37;0.37;;;10.40;94.60;;;;;;4440522;32;20077;-60
2024/04/21 10:24:30;;;;;;;0.85;0.60;;;10.80;94.70;;;;;;4441749;32;20061;-60
2024/04/21 10:27:00;;;;;;;1.35;1.12;;;11.40;94.10;;;;;;4440181;32;20065;-61
2024/04/21 10:29:29;;;;;;;0.30;0.30;;;11.70;94.20;;;;;;4440064;32;20056;-60
2024/04/21 10:31:55;;;;;;;0.50;0.50;;;11.80;93.70;;;;;;4441550;32;20078;-60
2024/04/21 10:34:22;;;;;;;0.20;0.20;;;11.70;92.50;;;;;;4441415;32;20069;-60
2024/04/21 10:36:48;;;;;;;0.60;0.60;;;11.90;94.40;;;;;;4434385;32;20156;-61
2024/04/21 10:39:29;;;;;;;6.60;1.48;;;12.40;92.50;;;;;;4428229;32;20073;-60
2024/04/21 10:41:56;;;;;;;;;;;12.80;91.40;;;;;;4440589;32;20057;-60
2024/04/21 10:44:22;;;;;;;0.30;0.30;;;13.10;92.60;;;;;;4436207;32;20287;-60
2024/04/21 10:46:48;;;;;;;0.35;0.35;;;12.90;91.80;;;;;;4439961;32;20049;-61
2024/04/21 10:49:13;;;;;;;0.30;0.30;;;12.50;92.40;;;;;;4440520;32;20050;-62
2024/04/21 10:51:39;;;;;;;0.40;0.40;;;12.10;92.90;;;;;;4440124;32;20069;-62
2024/04/21 10:54:07;;;;;;;0.60;0.60;;;11.60;93.80;;;;;;4421089;32;20509;-61
2024/04/21 10:56:36;;;;;;;1.35;1.17;;;11.60;93.60;;;;;;4443314;32;20134;-61
2024/04/21 10:59:04;;;;;;;0.40;0.40;;;11.20;94.70;;;;;;4432692;32;20052;-61
2024/04/21 11:01:29;;;;;;;0.68;0.68;;;11.00;94.30;;;;;;4443555;32;20045;-61
2024/04/21 11:03:55;;;;;;;0.40;0.40;;;10.90;95.60;;;;;;4442669;32;20168;-61
2024/04/21 11:06:21;;;;;;;0.40;0.40;;;10.80;94.80;;;;;;4443182;32;20131;-61
2024/04/21 11:08:47;;;;;;;1.85;1.05;;;10.60;93.50;;;;;;4441843;32;20057;-61
2024/04/21 11:11:14;;;;;;;0.30;0.30;;;10.40;94.90;;;;;;4443245;32;20061;-61
2024/04/21 11:13:40;;;;;;;0.30;0.30;;;10.30;94.40;;;;;;4443311;32;20065;-61
2024/04/21 11:16:11;;;;;;;0.30;0.30;;;10.30;94.30;;;;;;4429694;32;20114;-61
2024/04/21 11:18:37;;;;;;;1.35;1.10;;;10.50;94.90;;;;;;4441549;32;20053;-62
2024/04/21 11:21:03;;;;;;;0.70;0.50;;;10.90;94.60;;;;;;4444098;32;20566;-61
2024/04/21 11:23:29;;;;;;;0.68;0.68;;;11.00;94.40;;;;;;4443207;32;20065;-61
2024/04/21 11:25:54;;;;;;;0.40;0.40;;;10.90;94.00;;;;;;4441772;32;20534;-61
2024/04/21 11:28:22;;;;;;;0.30;0.30;;;10.60;93.50;;;;;;4439895;32;20208;-60
2024/04/21 11:30:47;;;;;;;0.30;0.30;;;10.50;95.20;;;;;;4441755;32;20560;-61
2024/04/21 11:33:13;;;;;;;0.40;0.40;;;10.70;95.30;;;;;;4441167;32;20073;-61
2024/04/21 11:35:40;;;;;;;0.43;0.43;;;10.80;93.70;;;;;;4434240;32;20068;-61
2024/04/21 11:38:06;;;;;;;0.40;0.40;;;10.70;93.60;;;;;;4443282;32;20069;-61
2024/04/21 11:40:36;;;;;;;0.40;0.40;;;10.60;93.90;;;;;;4422060;32;20163;-61
2024/04/21 11:43:02;;;;;;;5.72;0.60;;;10.50;94.30;;;;;;4441305;32;20074;-62
2024/04/21 11:45:29;;;;;;;0.40;0.40;;;10.70;95.00;;;;;;4441935;32;20472;-61
2024/04/21 11:47:57;;;;;;;0.30;0.30;;;10.80;95.00;;;;;;4441958;32;20524;-62
2024/04/21 11:50:24;;;;;;;0.40;0.40;;;10.80;94.90;;;;;;4430983;32;20080;-62
2024/04/21 11:52:51;;;;;;;0.30;0.30;;;11.00;95.60;;;;;;4436325;32;20480;-62
2024/04/21 11:55:17;;;;;;;0.55;0.47;;;11.30;95.90;;;;;;4433885;32;79274;-61
2024/04/21 11:57:42;;;;;;;0.32;0.32;;;11.50;95.70;;;;;;4435507;32;20120;-60
2024/04/21 12:02:35;;;;;;;7.68;1.25;;;12.60;91.20;;;;;;4433900;32;20536;-61
2024/04/21 12:05:01;;;;;;;0.32;0.32;;;13.10;92.20;;;;;;4432794;32;20069;-61
2024/04/21 12:07:26;;;;;;;0.50;0.50;;;13.10;91.70;;;;;;4431326;32;20205;-61
2024/04/21 12:09:52;;;;;;;0.40;0.40;;;13.30;92.50;;;;;;4430717;32;20117;-61
2024/04/21 12:12:17;;;;;;;0.40;0.40;;;12.70;91.90;;;;;;4432361;32;20085;-61
2024/04/21 12:14:44;;;;;;;0.40;0.40;;;12.90;90.70;;;;;;4429140;32;21139;-61
2024/04/21 12:17:14;;;;;;;0.40;0.40;;;13.20;90.80;;;;;;4425416;32;20066;-61
2024/04/21 12:19:40;;;;;;;0.32;0.32;;;12.90;91.00;;;;;;4433674;32;20112;-62
2024/04/21 12:22:05;;;;;;;0.30;0.30;;;12.70;91.10;;;;;;4433816;32;20535;-62
2024/04/21 12:24:31;;;;;;;0.40;0.40;;;12.50;92.00;;;;;;4436116;32;20112;-62
2024/04/21 12:26:56;;;;;;;0.70;0.70;;;12.80;92.40;;;;;;4433333;32;20505;-62
2024/04/21 12:29:23;;;;;;;1.85;0.60;;;13.90;90.70;;;;;;4430618;32;20112;-62
2024/04/21 12:31:48;;;;;;;0.40;0.40;;;14.70;90.40;;;;;;4435060;32;20497;-62
2024/04/21 12:34:14;;;;;;;0.30;0.30;;;14.50;89.50;;;;;;4429390;32;20061;-62
2024/04/21 12:36:39;;;;;;;0.43;0.43;;;14.00;90.00;;;;;;4436530;32;20061;-62
2024/04/21 12:39:05;;;;;;;0.70;0.55;;;13.30;90.30;;;;;;4433306;32;20124;-62
2024/04/21 12:41:31;;;;;;;0.30;0.30;;;12.90;91.30;;;;;;4435473;32;20145;-62
2024/04/21 12:43:56;;;;;;;0.68;0.68;;;12.60;91.50;;;;;;4431182;32;20085;-62
2024/04/21 12:46:22;;;;;;;0.40;0.40;;;12.40;92.90;;;;;;4434967;32;20073;-62
2024/04/21 12:48:47;;;;;;;0.30;0.30;;;12.20;92.70;;;;;;4430964;32;20086;-63
2024/04/21 12:51:13;;;;;;;0.45;0.45;;;11.90;92.50;;;;;;4431150;32;20073;-61